Time;durP1;ratioP1;P1;durP2;ratioP2;P2;SDS_P1;SDS_P2;PMS_P1;PMS_P2;Temp;Humidity;BMP_temperature;BMP_pressure;BME280_temperature;BME280_humidity;BME280_pressure;Samples;Min_cycle;Max_cycle;Signal;HPM_P1;HPM_P2
2023/02/17 00:01:15;;;;;;;9.05;6.65;;;;;;;;;;5058178;28;20197;-77
2023/02/17 00:03:41;;;;;;;10.82;7.30;;;;;;;;;;5058880;28;20174;-77
2023/02/17 00:06:09;;;;;;;10.45;7.90;;;;;;;;;;5058044;28;20675;-77
2023/02/17 00:08:35;;;;;;;9.80;7.63;;;;;;;;;;5058286;28;20165;-77
2023/02/17 00:11:01;;;;;;;8.38;6.50;;;;;;;;;;5057645;28;20515;-81
2023/02/17 00:13:27;;;;;;;11.05;7.13;;;;;;;;;;5056690;28;20232;-77
2023/02/17 00:15:53;;;;;;;8.25;7.15;;;;;;;;;;5058553;28;20521;-77
2023/02/17 00:18:19;;;;;;;7.63;6.30;;;;;;;;;;5057924;28;20221;-77
2023/02/17 00:20:45;;;;;;;9.75;7.10;;;;;;;;;;5057947;28;20189;-77
2023/02/17 00:23:11;;;;;;;10.60;6.60;;;;;;;;;;5057204;28;20532;-77
2023/02/17 00:25:38;;;;;;;7.43;6.35;;;;;;;;;;5058482;28;20404;-77
2023/02/17 00:28:04;;;;;;;9.65;6.82;;;;;;;;;;5057928;28;20177;-77
2023/02/17 00:30:30;;;;;;;11.57;6.55;;;;;;;;;;5057503;28;20177;-77
2023/02/17 00:32:56;;;;;;;11.53;7.77;;;;;;;;;;5056612;28;20201;-77
2023/02/17 00:35:22;;;;;;;10.83;6.90;;;;;;;;;;5057265;28;21277;-77
2023/02/17 00:37:48;;;;;;;11.98;6.32;;;;;;;;;;5057744;28;20397;-77
2023/02/17 00:40:14;;;;;;;9.63;6.97;;;;;;;;;;5055916;28;20174;-77
2023/02/17 00:42:40;;;;;;;8.75;6.10;;;;;;;;;;5057983;28;20178;-77
2023/02/17 00:45:07;;;;;;;8.95;6.15;;;;;;;;;;5057389;28;20174;-77
2023/02/17 00:47:33;;;;;;;12.82;7.45;;;;;;;;;;5056559;28;20185;-77
2023/02/17 00:49:59;;;;;;;7.30;6.60;;;;;;;;;;5057757;28;20498;-77
2023/02/17 00:52:25;;;;;;;8.15;7.20;;;;;;;;;;5057309;28;20212;-78
2023/02/17 00:54:51;;;;;;;9.33;6.30;;;;;;;;;;5055580;28;20185;-77
2023/02/17 00:57:17;;;;;;;8.15;6.63;;;;;;;;;;5057045;28;20416;-77
2023/02/17 00:59:43;;;;;;;10.20;7.13;;;;;;;;;;5055824;28;20649;-77
2023/02/17 01:02:09;;;;;;;8.68;6.47;;;;;;;;;;5057298;28;20236;-77
2023/02/17 01:04:35;;;;;;;8.75;6.85;;;;;;;;;;5057308;28;20237;-78
2023/02/17 01:07:01;;;;;;;7.60;6.15;;;;;;;;;;5057524;28;20185;-77
2023/02/17 01:09:28;;;;;;;8.63;6.37;;;;;;;;;;5056744;28;20177;-77
2023/02/17 01:11:54;;;;;;;6.25;5.63;;;;;;;;;;5056793;28;20456;-77
2023/02/17 01:14:20;;;;;;;7.85;6.35;;;;;;;;;;5056689;28;20229;-77
2023/02/17 01:16:47;;;;;;;8.27;7.43;;;;;;;;;;5057301;28;20177;-77
2023/02/17 01:19:15;;;;;;;7.53;6.68;;;;;;;;;;5056965;28;20241;-77
2023/02/17 01:21:41;;;;;;;9.20;5.65;;;;;;;;;;5056257;28;20178;-77
2023/02/17 01:24:08;;;;;;;8.60;6.85;;;;;;;;;;5056820;28;20189;-78
2023/02/17 01:26:35;;;;;;;9.00;6.47;;;;;;;;;;5057269;28;20185;-77
2023/02/17 01:29:02;;;;;;;8.57;6.57;;;;;;;;;;5056419;28;20692;-77
2023/02/17 01:31:28;;;;;;;10.15;6.50;;;;;;;;;;5056246;28;20877;-77
2023/02/17 01:33:55;;;;;;;7.78;6.25;;;;;;;;;;5056997;28;20298;-77
2023/02/17 01:36:21;;;;;;;8.25;6.63;;;;;;;;;;5056481;28;20219;-77
2023/02/17 01:38:48;;;;;;;7.22;6.30;;;;;;;;;;5056717;28;20256;-77
2023/02/17 01:41:14;;;;;;;10.27;5.85;;;;;;;;;;5038892;28;20235;-77
2023/02/17 01:43:41;;;;;;;7.90;6.60;;;;;;;;;;5056615;28;20177;-77
2023/02/17 01:46:08;;;;;;;11.17;6.30;;;;;;;;;;5055451;28;20688;-79
2023/02/17 01:48:46;;;;;;;9.23;6.65;;;;;;;;;;5056713;28;20988;-77
2023/02/17 01:51:21;;;;;;;9.63;6.40;;;;;;;;;;5056134;28;20526;-77
2023/02/17 01:53:56;;;;;;;8.65;6.90;;;;;;;;;;5055412;28;20629;-77
2023/02/17 01:56:23;;;;;;;8.30;6.38;;;;;;;;;;5056333;28;20256;-77
2023/02/17 01:58:51;;;;;;;7.90;6.53;;;;;;;;;;5056352;28;20641;-77
2023/02/17 02:01:18;;;;;;;8.35;7.35;;;;;;;;;;5055677;28;20229;-77
2023/02/17 02:03:44;;;;;;;9.50;7.18;;;;;;;;;;5055957;28;20190;-77
2023/02/17 02:06:15;;;;;;;7.60;6.65;;;;;;;;;;5054719;28;20560;-77
2023/02/17 02:08:47;;;;;;;9.65;6.47;;;;;;;;;;5056484;28;20173;-77
2023/02/17 02:11:13;;;;;;;8.07;6.00;;;;;;;;;;5056035;28;20178;-78
2023/02/17 02:13:39;;;;;;;9.90;7.38;;;;;;;;;;5055310;28;20269;-77
2023/02/17 02:16:25;;;;;;;9.70;7.70;;;;;;;;;;5056254;28;20236;-77
2023/02/17 02:18:55;;;;;;;9.90;8.10;;;;;;;;;;5055475;28;20178;-77
2023/02/17 02:21:57;;;;;;;7.80;6.90;;;;;;;;;;5055519;28;20176;-77
2023/02/17 02:24:22;;;;;;;9.52;7.10;;;;;;;;;;4993841;28;20270;-77
2023/02/17 02:27:05;;;;;;;7.87;7.07;;;;;;;;;;5043677;28;20185;-77
2023/02/17 02:29:37;;;;;;;7.25;6.50;;;;;;;;;;5055727;28;20398;-78
2023/02/17 02:32:22;;;;;;;10.18;8.02;;;;;;;;;;5055362;28;20240;-77
2023/02/17 02:34:54;;;;;;;12.03;7.57;;;;;;;;;;5055877;28;20193;-77
2023/02/17 02:37:24;;;;;;;11.90;7.80;;;;;;;;;;5055717;28;20752;-77
2023/02/17 02:39:52;;;;;;;9.93;7.25;;;;;;;;;;5055997;28;20173;-77
2023/02/17 02:42:20;;;;;;;8.90;7.25;;;;;;;;;;5055433;28;20173;-77
2023/02/17 02:44:46;;;;;;;8.75;7.00;;;;;;;;;;5054436;28;20185;-77
2023/02/17 02:47:31;;;;;;;12.10;7.87;;;;;;;;;;5055142;28;20177;-77
2023/02/17 02:49:57;;;;;;;8.18;7.35;;;;;;;;;;5055585;28;20403;-77
2023/02/17 02:52:43;;;;;;;9.07;7.13;;;;;;;;;;5055599;28;20553;-77
2023/02/17 02:55:13;;;;;;;9.30;6.68;;;;;;;;;;5055771;28;20177;-77
2023/02/17 02:57:45;;;;;;;10.93;7.20;;;;;;;;;;5055680;28;20212;-77
2023/02/17 03:00:24;;;;;;;8.50;7.60;;;;;;;;;;5055393;28;20720;-82
2023/02/17 03:02:53;;;;;;;9.27;7.40;;;;;;;;;;5055698;28;20173;-77
2023/02/17 03:05:24;;;;;;;10.02;7.53;;;;;;;;;;5054940;28;20716;-77
2023/02/17 03:07:55;;;;;;;7.30;6.60;;;;;;;;;;5055615;28;20235;-77
2023/02/17 03:10:21;;;;;;;9.13;7.47;;;;;;;;;;5055155;28;20166;-77
2023/02/17 03:12:47;;;;;;;8.95;7.50;;;;;;;;;;5054373;28;20563;-77
2023/02/17 03:15:15;;;;;;;8.77;7.35;;;;;;;;;;5053741;28;20684;-77
2023/02/17 03:17:42;;;;;;;7.63;6.82;;;;;;;;;;5058263;28;20184;-77
2023/02/17 03:20:08;;;;;;;8.53;6.70;;;;;;;;;;5057999;28;20586;-77
2023/02/17 03:22:39;;;;;;;8.45;6.68;;;;;;;;;;5058980;28;20419;-77
2023/02/17 03:25:06;;;;;;;7.75;6.95;;;;;;;;;;5059738;28;20634;-77
2023/02/17 03:27:32;;;;;;;9.40;7.18;;;;;;;;;;5059056;28;20529;-78
2023/02/17 03:29:58;;;;;;;9.68;7.68;;;;;;;;;;5059626;28;20181;-77
2023/02/17 03:32:24;;;;;;;9.20;6.65;;;;;;;;;;5058422;28;20201;-77
2023/02/17 03:34:50;;;;;;;7.93;7.13;;;;;;;;;;5059402;28;20224;-77
2023/02/17 03:37:16;;;;;;;9.30;7.03;;;;;;;;;;5057572;28;20239;-77
2023/02/17 03:39:42;;;;;;;9.52;7.28;;;;;;;;;;5059697;28;20166;-77
2023/02/17 03:42:08;;;;;;;8.25;6.65;;;;;;;;;;5059086;28;20185;-77
2023/02/17 03:44:34;;;;;;;9.23;7.35;;;;;;;;;;5058496;28;20185;-77
2023/02/17 03:47:00;;;;;;;7.70;6.50;;;;;;;;;;5058686;28;20169;-77
2023/02/17 03:49:26;;;;;;;12.13;6.43;;;;;;;;;;5057572;28;20272;-77
2023/02/17 03:51:52;;;;;;;10.90;7.00;;;;;;;;;;5057914;28;20292;-77
2023/02/17 03:54:18;;;;;;;8.98;7.30;;;;;;;;;;5058850;28;20573;-77
2023/02/17 03:56:44;;;;;;;6.55;5.95;;;;;;;;;;5057848;28;20196;-77
2023/02/17 03:59:10;;;;;;;6.68;5.97;;;;;;;;;;5058950;28;20231;-77
2023/02/17 04:01:36;;;;;;;7.27;6.30;;;;;;;;;;5058347;28;20181;-77
2023/02/17 04:04:02;;;;;;;9.25;7.03;;;;;;;;;;5058605;28;20403;-77
2023/02/17 04:06:28;;;;;;;7.07;6.38;;;;;;;;;;5057109;28;20617;-77
2023/02/17 04:08:54;;;;;;;7.13;5.45;;;;;;;;;;5056837;28;20189;-77
2023/02/17 04:11:20;;;;;;;8.85;7.10;;;;;;;;;;5057776;28;20176;-77
2023/02/17 04:13:46;;;;;;;7.35;6.53;;;;;;;;;;5057918;28;20225;-77
2023/02/17 04:16:12;;;;;;;8.23;7.10;;;;;;;;;;5058809;28;20209;-78
2023/02/17 04:18:38;;;;;;;6.70;5.93;;;;;;;;;;5056683;28;20189;-77
2023/02/17 04:21:05;;;;;;;7.67;6.87;;;;;;;;;;5058153;28;20450;-77
2023/02/17 04:23:31;;;;;;;10.33;6.47;;;;;;;;;;5057519;28;20408;-77
2023/02/17 04:25:57;;;;;;;7.30;5.93;;;;;;;;;;5057960;28;20877;-77
2023/02/17 04:28:23;;;;;;;7.10;6.40;;;;;;;;;;5056940;28;20243;-77
2023/02/17 04:30:50;;;;;;;7.20;6.47;;;;;;;;;;5057864;28;20569;-77
2023/02/17 04:33:17;;;;;;;6.55;5.00;;;;;;;;;;5058598;28;20451;-81
2023/02/17 04:35:43;;;;;;;7.15;5.78;;;;;;;;;;5056687;28;20185;-77
2023/02/17 04:38:09;;;;;;;8.00;6.55;;;;;;;;;;5058066;28;20177;-77
2023/02/17 04:40:36;;;;;;;10.20;7.10;;;;;;;;;;5057345;28;20200;-77
2023/02/17 04:43:02;;;;;;;8.93;7.45;;;;;;;;;;5057575;28;20268;-77
2023/02/17 04:45:28;;;;;;;6.95;6.13;;;;;;;;;;5057793;28;20349;-78
2023/02/17 04:47:54;;;;;;;5.97;4.82;;;;;;;;;;5058203;28;20661;-77
2023/02/17 04:50:20;;;;;;;7.27;6.20;;;;;;;;;;5056704;28;20189;-77
2023/02/17 04:52:46;;;;;;;7.50;5.63;;;;;;;;;;5057439;28;20468;-77
2023/02/17 04:55:12;;;;;;;9.35;5.20;;;;;;;;;;5057541;28;20642;-77
2023/02/17 04:57:38;;;;;;;6.78;6.03;;;;;;;;;;5057558;28;20173;-76
2023/02/17 05:00:05;;;;;;;9.03;6.37;;;;;;;;;;5057876;28;20548;-77
2023/02/17 05:02:32;;;;;;;7.60;6.55;;;;;;;;;;5057129;28;20443;-77
2023/02/17 05:04:58;;;;;;;7.00;6.30;;;;;;;;;;5057481;28;20174;-77
2023/02/17 05:07:24;;;;;;;7.63;5.97;;;;;;;;;;5057562;28;20277;-77
2023/02/17 05:09:50;;;;;;;7.03;6.20;;;;;;;;;;5057410;28;20508;-77
2023/02/17 05:12:16;;;;;;;7.20;6.15;;;;;;;;;;5057501;28;20455;-77
2023/02/17 05:14:42;;;;;;;6.95;6.25;;;;;;;;;;5056677;28;20225;-77
2023/02/17 05:17:08;;;;;;;6.90;6.20;;;;;;;;;;5057086;28;20173;-77
2023/02/17 05:19:34;;;;;;;7.43;4.30;;;;;;;;;;5055629;28;20427;-77
2023/02/17 05:22:00;;;;;;;9.35;6.47;;;;;;;;;;5056454;28;20498;-78
2023/02/17 05:24:26;;;;;;;10.38;6.22;;;;;;;;;;5056810;28;20178;-78
2023/02/17 05:26:52;;;;;;;7.20;6.50;;;;;;;;;;5057365;28;20174;-77
2023/02/17 05:29:18;;;;;;;6.43;5.30;;;;;;;;;;5057422;28;20604;-78
2023/02/17 05:31:44;;;;;;;7.22;6.53;;;;;;;;;;5056832;28;20468;-78
2023/02/17 05:34:10;;;;;;;6.80;6.10;;;;;;;;;;5057087;28;20169;-78
2023/02/17 05:36:36;;;;;;;7.20;6.03;;;;;;;;;;5056827;28;20177;-78
2023/02/17 05:39:02;;;;;;;6.70;6.00;;;;;;;;;;5057059;28;20513;-77
2023/02/17 05:41:28;;;;;;;9.70;5.68;;;;;;;;;;5056487;28;20273;-78
2023/02/17 05:43:54;;;;;;;6.30;5.00;;;;;;;;;;5056748;28;20186;-78
2023/02/17 05:46:21;;;;;;;6.30;5.20;;;;;;;;;;5056746;28;20235;-79
2023/02/17 05:48:47;;;;;;;10.10;5.82;;;;;;;;;;5056457;28;20515;-78
2023/02/17 05:51:16;;;;;;;7.28;5.55;;;;;;;;;;5056677;28;20183;-77
2023/02/17 05:53:42;;;;;;;8.57;5.35;;;;;;;;;;5056740;28;20213;-77
2023/02/17 05:56:08;;;;;;;6.13;5.35;;;;;;;;;;5056863;28;20189;-78
2023/02/17 05:58:34;;;;;;;7.35;5.40;;;;;;;;;;5056345;28;20223;-78
2023/02/17 06:01:00;;;;;;;6.93;5.80;;;;;;;;;;5056524;28;20204;-77
2023/02/17 06:03:26;;;;;;;6.25;4.95;;;;;;;;;;5054989;28;20637;-78
2023/02/17 06:05:52;;;;;;;6.47;5.03;;;;;;;;;;5055917;28;20174;-77
2023/02/17 06:08:18;;;;;;;7.53;4.90;;;;;;;;;;5056001;28;20185;-77
2023/02/17 06:10:44;;;;;;;5.65;5.07;;;;;;;;;;5055743;28;20477;-77
2023/02/17 06:13:10;;;;;;;7.70;4.60;;;;;;;;;;5056050;28;20217;-77
2023/02/17 06:15:36;;;;;;;7.55;5.30;;;;;;;;;;5055621;28;20416;-78
2023/02/17 06:18:02;;;;;;;6.03;5.43;;;;;;;;;;5056044;28;20664;-78
2023/02/17 06:20:28;;;;;;;6.73;5.07;;;;;;;;;;5055259;28;20208;-78
2023/02/17 06:22:54;;;;;;;7.38;5.40;;;;;;;;;;5054696;28;20417;-78
2023/02/17 06:25:20;;;;;;;6.77;5.40;;;;;;;;;;5056362;28;20495;-78
2023/02/17 06:27:46;;;;;;;6.47;4.50;;;;;;;;;;5055624;28;20465;-77
2023/02/17 06:30:13;;;;;;;8.15;5.45;;;;;;;;;;5055601;28;20505;-77
2023/02/17 06:32:39;;;;;;;5.13;4.63;;;;;;;;;;5054720;28;20730;-78
2023/02/17 06:35:05;;;;;;;6.95;5.10;;;;;;;;;;5055692;28;20644;-78
2023/02/17 06:37:31;;;;;;;6.55;5.38;;;;;;;;;;5055610;28;20178;-77
2023/02/17 06:39:57;;;;;;;7.07;5.55;;;;;;;;;;5055920;28;20169;-78
2023/02/17 06:42:24;;;;;;;8.40;6.25;;;;;;;;;;5055694;28;20173;-78
2023/02/17 06:44:50;;;;;;;7.95;6.22;;;;;;;;;;5056086;28;20223;-77
2023/02/17 06:47:16;;;;;;;7.43;4.82;;;;;;;;;;5055583;28;20519;-77
2023/02/17 06:49:42;;;;;;;7.78;5.15;;;;;;;;;;5054721;28;20177;-77
2023/02/17 06:52:08;;;;;;;7.47;5.63;;;;;;;;;;5055075;28;20223;-77
2023/02/17 06:54:34;;;;;;;8.25;6.88;;;;;;;;;;5055843;28;20822;-77
2023/02/17 06:57:00;;;;;;;7.93;5.88;;;;;;;;;;5056067;28;20252;-77
2023/02/17 06:59:26;;;;;;;10.65;5.55;;;;;;;;;;5053704;28;20182;-80
2023/02/17 07:01:52;;;;;;;12.02;6.10;;;;;;;;;;5055395;28;20231;-78
2023/02/17 07:04:18;;;;;;;7.90;5.70;;;;;;;;;;5055239;28;20181;-78
2023/02/17 07:06:44;;;;;;;16.30;5.50;;;;;;;;;;5054824;28;20404;-77
2023/02/17 07:09:12;;;;;;;7.00;4.77;;;;;;;;;;5055242;28;20443;-78
2023/02/17 07:11:38;;;;;;;6.03;5.43;;;;;;;;;;5037692;28;20771;-78
2023/02/17 07:14:05;;;;;;;9.73;6.80;;;;;;;;;;5055041;28;20571;-77
2023/02/17 07:16:31;;;;;;;8.60;6.15;;;;;;;;;;5054068;28;20653;-78
2023/02/17 07:18:57;;;;;;;6.18;5.53;;;;;;;;;;5055541;28;20507;-78
2023/02/17 07:21:24;;;;;;;10.55;6.25;;;;;;;;;;5055036;28;20205;-78
2023/02/17 07:23:50;;;;;;;9.90;6.10;;;;;;;;;;5053752;28;20533;-77
2023/02/17 07:26:16;;;;;;;8.85;6.25;;;;;;;;;;5055236;28;20177;-77
2023/02/17 07:28:42;;;;;;;7.28;5.88;;;;;;;;;;5055054;28;20177;-78
2023/02/17 07:31:09;;;;;;;7.68;5.70;;;;;;;;;;5053847;28;20185;-77
2023/02/17 07:33:35;;;;;;;8.10;5.88;;;;;;;;;;5055469;28;20291;-77
2023/02/17 07:36:12;;;;;;;6.25;5.53;;;;;;;;;;5055434;28;20177;-77
2023/02/17 07:38:38;;;;;;;5.70;4.97;;;;;;;;;;5053319;28;20177;-78
2023/02/17 07:41:08;;;;;;;7.00;5.72;;;;;;;;;;5055139;28;20544;-77
2023/02/17 07:43:34;;;;;;;7.55;6.20;;;;;;;;;;5055020;28;20209;-77
2023/02/17 07:46:00;;;;;;;6.93;5.95;;;;;;;;;;5053766;28;20659;-77
2023/02/17 07:48:27;;;;;;;6.53;5.50;;;;;;;;;;5054942;28;20269;-77
2023/02/17 07:50:53;;;;;;;6.35;5.45;;;;;;;;;;5054987;28;20499;-77
2023/02/17 07:53:19;;;;;;;6.18;4.95;;;;;;;;;;5055042;28;20681;-78
2023/02/17 07:55:45;;;;;;;7.07;5.80;;;;;;;;;;5054630;28;20269;-77
2023/02/17 07:58:11;;;;;;;7.75;6.07;;;;;;;;;;5053594;28;20272;-79
2023/02/17 08:00:37;;;;;;;9.30;6.23;;;;;;;;;;5054477;28;20572;-77
2023/02/17 08:03:03;;;;;;;8.07;5.67;;;;;;;;;;5055718;28;20415;-78
2023/02/17 08:05:29;;;;;;;10.52;4.40;;;;;;;;;;5059955;28;20404;-80
2023/02/17 08:13:25;;;;;;;5.63;5.13;;;;;;;;;;5059290;28;20633;-77
2023/02/17 08:15:51;;;;;;;12.35;5.30;;;;;;;;;;5058304;28;20190;-77
2023/02/17 08:18:17;;;;;;;8.10;4.83;;;;;;;;;;5057309;28;20181;-77
2023/02/17 08:20:43;;;;;;;4.80;4.40;;;;;;;;;;5057377;28;20806;-78
2023/02/17 08:23:09;;;;;;;4.10;3.70;;;;;;;;;;5058256;28;20194;-78
2023/02/17 08:25:36;;;;;;;7.90;5.37;;;;;;;;;;5056697;28;20416;-77
2023/02/17 08:28:04;;;;;;;5.37;4.87;;;;;;;;;;5058687;28;20411;-78
2023/02/17 08:30:30;;;;;;;6.30;5.50;;;;;;;;;;5057990;28;20404;-78
2023/02/17 08:32:56;;;;;;;8.48;4.75;;;;;;;;;;5058662;28;20464;-77
2023/02/17 08:35:22;;;;;;;7.30;5.70;;;;;;;;;;5058157;28;20177;-78
2023/02/17 08:37:49;;;;;;;10.07;6.87;;;;;;;;;;5056744;28;20403;-77
2023/02/17 08:40:15;;;;;;;9.63;5.77;;;;;;;;;;5057157;28;20939;-77
2023/02/17 08:42:41;;;;;;;5.17;4.63;;;;;;;;;;5057184;28;20408;-78
2023/02/17 08:45:07;;;;;;;8.15;6.30;;;;;;;;;;5057932;28;20470;-78
2023/02/17 08:47:34;;;;;;;5.40;4.80;;;;;;;;;;5057913;28;20177;-78
2023/02/17 08:50:00;;;;;;;5.97;4.27;;;;;;;;;;5058105;28;20451;-78
2023/02/17 08:52:26;;;;;;;5.77;5.20;;;;;;;;;;5057932;28;20990;-77
2023/02/17 08:54:52;;;;;;;5.17;3.80;;;;;;;;;;5056788;28;20415;-77
2023/02/17 08:57:20;;;;;;;4.00;3.47;;;;;;;;;;5057854;28;20401;-78
2023/02/17 08:59:47;;;;;;;5.17;3.93;;;;;;;;;;5057351;28;20400;-77
2023/02/17 09:02:13;;;;;;;5.57;3.50;;;;;;;;;;5057804;28;20416;-77
2023/02/17 09:04:39;;;;;;;4.10;3.47;;;;;;;;;;5057772;28;20448;-78
2023/02/17 09:07:08;;;;;;;6.20;4.23;;;;;;;;;;5057922;28;20412;-79
2023/02/17 09:09:34;;;;;;;5.63;3.60;;;;;;;;;;5056500;28;20408;-78
2023/02/17 09:12:00;;;;;;;6.73;3.60;;;;;;;;;;5057560;28;21048;-78
2023/02/17 09:14:27;;;;;;;5.00;3.60;;;;;;;;;;5056938;28;20503;-85
2023/02/17 09:16:54;;;;;;;6.33;3.60;;;;;;;;;;5043060;28;20424;-84
2023/02/17 09:19:20;;;;;;;4.00;3.70;;;;;;;;;;5061128;28;20374;-85
2023/02/17 09:21:47;;;;;;;3.33;3.03;;;;;;;;;;5060532;28;20421;-85
2023/02/17 09:24:13;;;;;;;5.27;4.00;;;;;;;;;;5062256;28;20449;-84
2023/02/17 09:26:39;;;;;;;4.13;3.17;;;;;;;;;;5062570;28;20770;-85
2023/02/17 09:29:05;;;;;;;3.90;3.50;;;;;;;;;;5043607;28;20412;-85
2023/02/17 09:31:33;;;;;;;8.80;2.50;;;;;;;;;;5060508;28;20400;-84
2023/02/17 09:33:59;;;;;;;4.70;3.80;;;;;;;;;;5059895;28;20895;-84
2023/02/17 09:36:27;;;;;;;3.33;3.00;;;;;;;;;;5062621;28;20419;-85
2023/02/17 09:38:53;;;;;;;3.83;2.53;;;;;;;;;;5062822;28;20375;-84
2023/02/17 09:41:38;;;;;;;4.97;3.23;;;;;;;;;;5042945;28;20517;-84
2023/02/17 09:44:13;;;;;;;7.83;3.60;;;;;;;;;;5061706;28;20492;-84
2023/02/17 09:46:49;;;;;;;8.13;3.10;;;;;;;;;;5062775;28;20407;-83
2023/02/17 09:49:17;;;;;;;4.23;2.90;;;;;;;;;;5061712;28;20741;-85
2023/02/17 09:51:47;;;;;;;3.83;2.70;;;;;;;;;;5060247;28;20422;-83
2023/02/17 09:54:32;;;;;;;3.03;2.40;;;;;;;;;;5066066;28;20930;-83
2023/02/17 09:56:59;;;;;;;3.27;2.97;;;;;;;;;;5056212;28;20432;-85
2023/02/17 09:59:29;;;;;;;5.67;3.73;;;;;;;;;;5057942;28;20411;-84
2023/02/17 10:01:55;;;;;;;3.37;2.97;;;;;;;;;;5054764;28;20416;-83
2023/02/17 10:04:23;;;;;;;4.73;2.83;;;;;;;;;;5057036;28;20460;-85
2023/02/17 10:06:51;;;;;;;4.57;2.60;;;;;;;;;;5056303;28;20425;-84
2023/02/17 10:09:30;;;;;;;4.83;2.40;;;;;;;;;;5057439;28;20404;-86
2023/02/17 10:12:04;;;;;;;4.67;2.60;;;;;;;;;;5055378;28;21057;-84
2023/02/17 10:14:34;;;;;;;4.40;2.50;;;;;;;;;;5054424;28;20454;-84
2023/02/17 10:17:10;;;;;;;8.37;3.03;;;;;;;;;;5054988;28;20506;-85
2023/02/17 10:19:38;;;;;;;4.20;2.97;;;;;;;;;;5054861;28;20458;-84
2023/02/17 10:22:04;;;;;;;4.83;2.83;;;;;;;;;;5054771;28;20416;-85
2023/02/17 10:24:30;;;;;;;3.97;2.37;;;;;;;;;;5055970;28;20581;-84
2023/02/17 10:27:02;;;;;;;3.83;2.10;;;;;;;;;;5054473;28;20806;-86
2023/02/17 10:29:28;;;;;;;3.30;2.13;;;;;;;;;;5054403;28;20416;-86
2023/02/17 10:32:10;;;;;;;3.40;2.20;;;;;;;;;;5055583;28;20466;-83
2023/02/17 10:34:37;;;;;;;7.00;2.20;;;;;;;;;;5054948;28;20740;-83
2023/02/17 10:37:09;;;;;;;2.90;2.70;;;;;;;;;;5056241;28;20404;-83
2023/02/17 10:39:44;;;;;;;5.23;2.20;;;;;;;;;;5055411;28;20387;-83
2023/02/17 10:42:21;;;;;;;3.83;2.40;;;;;;;;;;5053419;28;20423;-84
2023/02/17 10:44:49;;;;;;;4.10;1.60;;;;;;;;;;5052852;28;20431;-84
2023/02/17 10:47:15;;;;;;;4.10;2.30;;;;;;;;;;5054851;28;20400;-83
2023/02/17 10:49:44;;;;;;;5.43;2.50;;;;;;;;;;5054441;28;20432;-83
2023/02/17 10:52:18;;;;;;;4.17;2.23;;;;;;;;;;5055511;28;20472;-84
2023/02/17 10:54:48;;;;;;;3.90;2.30;;;;;;;;;;5065033;28;20418;-84
2023/02/17 10:57:16;;;;;;;4.63;1.87;;;;;;;;;;5056480;28;20443;-83
2023/02/17 10:59:43;;;;;;;2.83;1.90;;;;;;;;;;5053850;28;20859;-84
2023/02/17 11:02:16;;;;;;;3.53;1.80;;;;;;;;;;5053120;28;20489;-83
2023/02/17 11:04:43;;;;;;;3.97;1.70;;;;;;;;;;5052924;28;20822;-84
2023/02/17 11:07:13;;;;;;;2.70;1.77;;;;;;;;;;5054615;28;20392;-84
2023/02/17 11:09:44;;;;;;;3.07;1.80;;;;;;;;;;5056325;28;20408;-84
2023/02/17 11:12:11;;;;;;;5.23;2.30;;;;;;;;;;5058207;28;20886;-85
2023/02/17 11:14:43;;;;;;;4.97;2.00;;;;;;;;;;5055701;28;20484;-84
2023/02/17 11:17:14;;;;;;;3.07;1.73;;;;;;;;;;5055246;28;20426;-84
2023/02/17 11:19:40;;;;;;;8.63;2.20;;;;;;;;;;5047274;28;20417;-85
2023/02/17 11:22:22;;;;;;;2.40;1.40;;;;;;;;;;5053434;28;20423;-84
2023/02/17 11:24:57;;;;;;;9.70;1.60;;;;;;;;;;5055955;28;20412;-84
2023/02/17 11:27:24;;;;;;;2.50;1.77;;;;;;;;;;5056947;28;20401;-85
2023/02/17 11:29:50;;;;;;;3.43;1.57;;;;;;;;;;5056928;28;20414;-84
2023/02/17 11:32:18;;;;;;;4.03;2.00;;;;;;;;;;5057056;28;20535;-86
2023/02/17 11:34:44;;;;;;;5.00;1.83;;;;;;;;;;5053818;28;20423;-85
2023/02/17 11:37:13;;;;;;;2.00;1.73;;;;;;;;;;5035464;28;20459;-86
2023/02/17 11:39:59;;;;;;;7.43;1.93;;;;;;;;;;5038532;28;20602;-83
2023/02/17 11:42:32;;;;;;;7.57;1.73;;;;;;;;;;5039056;28;20427;-84
2023/02/17 11:44:59;;;;;;;7.47;2.37;;;;;;;;;;5037287;28;20740;-84
2023/02/17 11:47:25;;;;;;;5.13;1.60;;;;;;;;;;5020356;28;20967;-84
2023/02/17 11:50:02;;;;;;;10.03;1.83;;;;;;;;;;5037685;28;20413;-90
2023/02/17 11:52:31;;;;;;;5.73;1.80;;;;;;;;;;5038522;28;20423;-83
2023/02/17 11:55:00;;;;;;;6.17;1.90;;;;;;;;;;5039132;28;20401;-84
2023/02/17 11:57:29;;;;;;;3.60;1.70;;;;;;;;;;5037523;28;20915;-84
2023/02/17 12:00:04;;;;;;;13.50;2.27;;;;;;;;;;5037622;28;20380;-84
2023/02/17 12:02:40;;;;;;;9.63;2.60;;;;;;;;;;5036332;28;20417;-84
2023/02/17 12:05:30;;;;;;;13.03;2.50;;;;;;;;;;5036982;28;20453;-85
2023/02/17 12:07:56;;;;;;;5.60;1.67;;;;;;;;;;5044986;28;20882;-84
2023/02/17 12:10:24;;;;;;;5.97;2.77;;;;;;;;;;5057266;28;20458;-83
2023/02/17 12:12:57;;;;;;;10.63;2.00;;;;;;;;;;5058298;28;20902;-85
2023/02/17 12:15:42;;;;;;;4.97;1.80;;;;;;;;;;5056482;28;20541;-86
2023/02/17 12:18:14;;;;;;;3.40;1.47;;;;;;;;;;5037330;28;20449;-84
2023/02/17 12:20:59;;;;;;;5.77;2.30;;;;;;;;;;5044023;28;20447;-89
2023/02/17 12:23:31;;;;;;;9.77;2.07;;;;;;;;;;5076267;28;20393;-84
2023/02/17 12:26:16;;;;;;;11.70;1.70;;;;;;;;;;5054201;28;20807;-85
2023/02/17 12:28:54;;;;;;;9.07;1.40;;;;;;;;;;5075746;28;20434;-84
2023/02/17 12:31:28;;;;;;;7.93;2.47;;;;;;;;;;5077633;28;20469;-87
2023/02/17 12:33:54;;;;;;;8.90;2.00;;;;;;;;;;5067321;28;20465;-85
2023/02/17 12:36:23;;;;;;;18.30;1.93;;;;;;;;;;5071148;28;20423;-86
2023/02/17 12:38:54;;;;;;;9.07;1.77;;;;;;;;;;5059872;28;20866;-86
2023/02/17 12:41:22;;;;;;;20.00;2.23;;;;;;;;;;5057304;28;20391;-84
2023/02/17 12:43:52;;;;;;;21.67;3.23;;;;;;;;;;5058392;28;20411;-85
2023/02/17 12:46:21;;;;;;;17.17;2.93;;;;;;;;;;5064583;28;20878;-84
2023/02/17 12:49:00;;;;;;;15.33;3.20;;;;;;;;;;5075801;28;20381;-85
2023/02/17 12:51:28;;;;;;;16.13;3.20;;;;;;;;;;5075802;28;20393;-83
2023/02/17 12:53:57;;;;;;;16.13;3.73;;;;;;;;;;5075963;28;20463;-84
2023/02/17 12:56:30;;;;;;;17.93;2.50;;;;;;;;;;5075414;28;20447;-86
2023/02/17 12:58:58;;;;;;;22.47;3.60;;;;;;;;;;5075123;28;20492;-84
2023/02/17 13:01:28;;;;;;;21.77;2.77;;;;;;;;;;5078927;28;20408;-84
2023/02/17 13:03:54;;;;;;;21.93;3.43;;;;;;;;;;5078954;28;20510;-84
2023/02/17 13:06:26;;;;;;;32.43;4.13;;;;;;;;;;5077481;28;20432;-84
2023/02/17 13:09:15;;;;;;;13.20;2.77;;;;;;;;;;5074750;28;20393;-86
2023/02/17 13:11:41;;;;;;;19.27;3.40;;;;;;;;;;5076537;28;20802;-85
2023/02/17 13:14:11;;;;;;;24.37;2.83;;;;;;;;;;5077885;28;20771;-84
2023/02/17 13:16:44;;;;;;;20.20;3.00;;;;;;;;;;5074838;28;20419;-85
2023/02/17 13:19:10;;;;;;;12.73;2.17;;;;;;;;;;5075750;28;20381;-84
2023/02/17 13:21:36;;;;;;;12.93;3.80;;;;;;;;;;5076478;28;20920;-84
2023/02/17 13:24:06;;;;;;;13.67;3.90;;;;;;;;;;5075944;28;20490;-84
2023/02/17 13:26:39;;;;;;;7.50;2.10;;;;;;;;;;5077101;28;20442;-84
2023/02/17 13:29:08;;;;;;;16.23;2.37;;;;;;;;;;5077105;28;20460;-84
2023/02/17 13:31:44;;;;;;;12.53;2.47;;;;;;;;;;5079585;28;20407;-85
2023/02/17 13:34:10;;;;;;;9.93;2.50;;;;;;;;;;5078558;28;20450;-84
2023/02/17 13:36:37;;;;;;;16.43;3.20;;;;;;;;;;5075290;28;20437;-84
2023/02/17 13:39:07;;;;;;;9.90;2.50;;;;;;;;;;5076503;28;20434;-83
2023/02/17 13:41:34;;;;;;;10.50;2.90;;;;;;;;;;5077203;28;20451;-84
2023/02/17 13:44:05;;;;;;;13.10;2.70;;;;;;;;;;5076714;28;20443;-84
2023/02/17 13:46:31;;;;;;;5.73;2.20;;;;;;;;;;5076868;28;20947;-83
2023/02/17 13:48:58;;;;;;;6.70;3.00;;;;;;;;;;5065795;28;20413;-84
2023/02/17 13:51:26;;;;;;;7.13;2.80;;;;;;;;;;5037670;28;20410;-83
2023/02/17 13:53:52;;;;;;;10.30;2.93;;;;;;;;;;5038535;28;20543;-85
2023/02/17 13:56:25;;;;;;;10.20;2.73;;;;;;;;;;5040324;28;20407;-84
2023/02/17 13:58:51;;;;;;;15.17;2.40;;;;;;;;;;5036287;28;20843;-85
2023/02/17 14:01:27;;;;;;;4.30;1.60;;;;;;;;;;5045340;28;20421;-78
2023/02/17 14:03:55;;;;;;;6.47;2.30;;;;;;;;;;5064518;28;20431;-77
2023/02/17 14:06:33;;;;;;;15.17;2.73;;;;;;;;;;5062076;28;20403;-78
2023/02/17 14:08:59;;;;;;;11.50;3.30;;;;;;;;;;5056231;28;20423;-79
2023/02/17 14:11:26;;;;;;;12.03;2.23;;;;;;;;;;5056512;28;20404;-78
2023/02/17 14:13:54;;;;;;;14.73;3.10;;;;;;;;;;5053804;28;20499;-79
2023/02/17 14:16:34;;;;;;;6.33;2.60;;;;;;;;;;5055160;28;20467;-78
2023/02/17 14:19:11;;;;;;;5.13;2.20;;;;;;;;;;5055195;28;20502;-78
2023/02/17 14:21:38;;;;;;;6.93;2.40;;;;;;;;;;5055343;28;20857;-79
2023/02/17 14:24:04;;;;;;;6.80;2.80;;;;;;;;;;5056276;28;20499;-81
2023/02/17 14:26:32;;;;;;;6.90;3.10;;;;;;;;;;5055218;28;20507;-81
2023/02/17 14:28:59;;;;;;;16.77;2.70;;;;;;;;;;5054378;28;20491;-80
2023/02/17 14:31:25;;;;;;;9.10;2.93;;;;;;;;;;5054730;28;20391;-80
2023/02/17 14:33:55;;;;;;;9.53;2.90;;;;;;;;;;5054407;28;20472;-86
2023/02/17 14:36:26;;;;;;;5.50;2.47;;;;;;;;;;5052987;28;20984;-80
2023/02/17 14:38:54;;;;;;;10.47;3.10;;;;;;;;;;5055472;28;20434;-87
2023/02/17 14:41:20;;;;;;;9.10;2.20;;;;;;;;;;5055220;28;20519;-81
2023/02/17 14:43:46;;;;;;;9.30;2.50;;;;;;;;;;5053484;28;20420;-80
2023/02/17 14:46:13;;;;;;;7.37;2.40;;;;;;;;;;5053184;28;20403;-81
2023/02/17 14:48:40;;;;;;;7.47;2.53;;;;;;;;;;5055160;28;20503;-80
2023/02/17 14:51:12;;;;;;;4.27;1.70;;;;;;;;;;5052813;28;20416;-80
2023/02/17 14:53:39;;;;;;;8.80;2.30;;;;;;;;;;5054771;28;20869;-81